Terminal Aerodrome Forecast
Issued by NWS

Current Version | Previous Version | Text Only | Print | Product List | Glossary On
Versions: 1 2 3 4 5 6 7 8 9 10 11 12
000
FTUS44 KEPZ 281700 RRA
TAFTCS
TAF
KTCS 281744Z 2818/2918 11007KT P6SM FEW200
     FM282000 19010G18KT P6SM FEW200
     FM290300 29011KT P6SM FEW140 FEW250
     FM291600 06008KT P6SM FEW140 SCT250=

USA.gov is the U.S. government's official web portal to all federal, state and local government web resources and services.